createdAt,value
2023-03-20T00:01:44.397Z,78.09
2023-03-20T00:05:09.098Z,78.40
2023-03-20T00:08:29.607Z,78.54
2023-03-20T00:12:07.989Z,78.51
2023-03-20T00:15:36.939Z,78.57
2023-03-20T00:18:46.639Z,78.43
2023-03-20T00:22:16.346Z,78.54
2023-03-20T00:25:54.659Z,78.87
2023-03-20T00:28:59.592Z,79.19
2023-03-20T00:32:14.613Z,79.08
2023-03-20T00:35:36.293Z,79.48
2023-03-20T00:39:08.842Z,79.25
2023-03-20T00:42:24.353Z,79.21
2023-03-20T00:45:38.708Z,79.32
2023-03-20T00:49:08.330Z,79.34
2023-03-20T00:52:08.349Z,79.47
2023-03-20T00:55:27.202Z,79.41
2023-03-20T00:58:49.342Z,79.73
2023-03-20T01:02:01.469Z,79.81
2023-03-20T01:05:12.927Z,80.06
2023-03-20T01:08:47.658Z,79.87
2023-03-20T01:12:02.931Z,79.95
2023-03-20T01:15:22.935Z,79.67
2023-03-20T01:18:43.997Z,79.72
2023-03-20T01:21:53.057Z,79.68
2023-03-20T01:25:04.134Z,79.64
2023-03-20T01:28:32.825Z,79.86
2023-03-20T01:31:42.793Z,80.04
2023-03-20T01:34:53.420Z,80.25
2023-03-20T01:38:19.283Z,80.72
2023-03-20T01:41:54.596Z,83.09
2023-03-20T01:45:23.715Z,83.90
2023-03-20T01:48:45.544Z,83.66
2023-03-20T01:52:05.434Z,84.31
2023-03-20T01:55:08.520Z,84.46
2023-03-20T01:58:33.217Z,84.42
2023-03-20T02:01:48.494Z,84.45
2023-03-20T02:04:41.881Z,84.67
2023-03-20T02:08:03.069Z,84.67
2023-03-20T02:11:28.389Z,84.64
2023-03-20T02:14:37.929Z,84.68
2023-03-20T02:17:54.736Z,84.76
2023-03-20T02:21:33.982Z,84.48
2023-03-20T02:25:02.472Z,84.64
2023-03-20T02:28:27.149Z,84.61
2023-03-20T02:31:54.820Z,84.90
2023-03-20T02:35:38.553Z,84.93
2023-03-20T02:39:01.367Z,84.99
2023-03-20T02:42:23.555Z,84.98
2023-03-20T02:46:10.598Z,84.74
2023-03-20T02:49:52.579Z,84.92
2023-03-20T02:53:12.052Z,84.98
2023-03-20T02:56:50.265Z,85.02
2023-03-20T03:00:27.359Z,85.31
2023-03-20T03:03:52.765Z,85.42
2023-03-20T03:13:36.962Z,85.28
2023-03-20T03:16:41.891Z,85.28
2023-03-20T03:20:14.473Z,85.38
2023-03-20T03:23:29.949Z,85.44
2023-03-20T03:26:49.529Z,85.41
2023-03-20T03:29:56.627Z,85.47
2023-03-20T03:33:08.683Z,85.43
2023-03-20T03:40:24.838Z,85.28
2023-03-20T03:43:41.420Z,84.82
2023-03-20T03:46:43.454Z,84.26
2023-03-20T03:50:04.968Z,84.21
2023-03-20T03:53:37.104Z,84.37
2023-03-20T03:56:36.093Z,84.32
2023-03-20T04:00:05.090Z,84.38
2023-03-20T04:03:38.389Z,84.28
2023-03-20T04:06:53.872Z,84.74
2023-03-20T04:10:09.557Z,84.38
2023-03-20T04:13:33.848Z,85.14
2023-03-20T04:16:55.480Z,85.62
2023-03-20T04:20:11.204Z,85.89
2023-03-20T04:23:23.359Z,85.88
2023-03-20T04:26:58.809Z,86.03
2023-03-20T04:30:11.014Z,86.24
2023-03-20T04:33:13.124Z,86.55
2023-03-20T04:37:01.540Z,86.61
2023-03-20T04:40:23.977Z,86.75
2023-03-20T04:43:39.575Z,86.93
2023-03-20T04:47:19.792Z,87.00
2023-03-20T04:50:46.886Z,86.80
2023-03-20T04:53:55.698Z,86.58
2023-03-20T04:57:20.200Z,86.55
2023-03-20T05:00:45.116Z,86.60
2023-03-20T05:04:10.352Z,86.86
2023-03-20T05:07:22.095Z,86.93
2023-03-20T05:10:50.048Z,87.17
2023-03-20T05:14:12.614Z,87.56
2023-03-20T05:17:42.122Z,87.30
2023-03-20T05:21:26.687Z,87.44
2023-03-20T05:25:02.654Z,87.58
2023-03-20T05:28:38.197Z,87.84
2023-03-20T05:32:13.133Z,88.18
2023-03-20T05:35:48.796Z,88.25
2023-03-20T05:39:06.214Z,88.29
2023-03-20T05:42:40.444Z,88.26
2023-03-20T05:46:16.236Z,88.02
2023-03-20T05:49:47.791Z,88.04
2023-03-20T05:53:12.364Z,88.37
2023-03-20T05:56:33.568Z,88.24
2023-03-20T05:59:16.064Z,88.30
2023-03-20T06:02:19.493Z,88.51
2023-03-20T06:04:57.582Z,88.50
2023-03-20T06:07:35.058Z,88.47
2023-03-20T06:10:11.533Z,88.29
2023-03-20T06:12:45.965Z,88.21
2023-03-20T06:15:17.707Z,88.33
2023-03-20T06:18:06.982Z,88.14
2023-03-20T06:20:44.150Z,88.20
2023-03-20T06:23:25.782Z,88.50
2023-03-20T06:25:58.321Z,88.45
2023-03-20T06:28:30.602Z,88.67
2023-03-20T06:31:13.022Z,88.72
2023-03-20T06:33:47.321Z,88.47
2023-03-20T06:36:23.560Z,88.59
2023-03-20T06:38:58.286Z,88.60
2023-03-20T06:41:37.503Z,88.52
2023-03-20T06:44:19.020Z,88.48
2023-03-20T06:47:09.499Z,88.71
2023-03-20T06:49:40.644Z,88.93
2023-03-20T06:52:16.962Z,88.94
2023-03-20T06:54:52.237Z,88.88
2023-03-20T06:57:26.091Z,88.81
2023-03-20T07:00:04.461Z,88.85
2023-03-20T07:02:36.379Z,88.96
2023-03-20T07:05:14.493Z,88.96
2023-03-20T07:07:46.930Z,89.04
2023-03-20T07:10:19.882Z,88.93
2023-03-20T07:12:55.227Z,88.86
2023-03-20T07:15:27.615Z,88.73
2023-03-20T07:17:59.761Z,88.82
2023-03-20T07:20:31.628Z,88.70
2023-03-20T07:23:03.070Z,88.48
2023-03-20T07:25:42.310Z,88.21
2023-03-20T07:28:13.852Z,88.11
2023-03-20T07:30:51.138Z,88.13
2023-03-20T07:33:32.425Z,88.27
2023-03-20T07:36:07.733Z,88.47
2023-03-20T07:38:39.527Z,88.58
2023-03-20T07:41:15.977Z,88.76
2023-03-20T07:43:57.479Z,88.53
2023-03-20T07:46:41.097Z,88.51
2023-03-20T07:49:15.614Z,88.80
2023-03-20T07:51:48.055Z,88.66
2023-03-20T07:54:25.578Z,88.71
2023-03-20T07:56:59.893Z,88.77
2023-03-20T07:59:33.804Z,88.73
2023-03-20T08:02:25.936Z,88.50
2023-03-20T08:05:06.391Z,88.40
2023-03-20T08:08:06.105Z,88.53
2023-03-20T08:10:48.408Z,88.55
2023-03-20T08:13:35.120Z,88.77
2023-03-20T08:16:25.719Z,88.80
2023-03-20T08:19:02.489Z,88.96
2023-03-20T08:21:50.221Z,89.01
2023-03-20T08:24:40.308Z,89.09
2023-03-20T08:27:31.417Z,88.77
2023-03-20T08:30:11.980Z,88.51
2023-03-20T08:32:48.194Z,88.53
2023-03-20T08:35:33.342Z,88.42
2023-03-20T08:38:12.939Z,87.90
2023-03-20T08:40:50.441Z,88.00
2023-03-20T08:43:28.036Z,87.69
2023-03-20T08:46:00.252Z,87.63
2023-03-20T08:48:44.242Z,87.51
2023-03-20T08:51:21.546Z,87.13
2023-03-20T08:53:53.417Z,86.78
2023-03-20T08:56:26.992Z,86.55
2023-03-20T08:59:05.404Z,85.93
2023-03-20T09:01:48.629Z,85.17
2023-03-20T09:04:21.812Z,84.97
2023-03-20T09:07:04.318Z,84.70
2023-03-20T09:09:41.613Z,84.59
2023-03-20T09:12:15.924Z,84.17
2023-03-20T09:14:47.476Z,83.60
2023-03-20T09:17:18.714Z,83.03
2023-03-20T09:19:50.267Z,82.58
2023-03-20T09:22:22.045Z,82.31
2023-03-20T09:24:58.905Z,82.48
2023-03-20T09:27:33.318Z,82.29
2023-03-20T09:30:07.593Z,82.48
2023-03-20T09:32:39.398Z,82.54
2023-03-20T09:35:17.497Z,82.66
2023-03-20T09:37:48.435Z,82.43
2023-03-20T09:40:28.555Z,81.98
2023-03-20T09:43:21.232Z,81.90
2023-03-20T09:45:59.953Z,81.57
2023-03-20T09:48:54.280Z,81.33
2023-03-20T09:52:05.526Z,81.06
2023-03-20T09:54:53.133Z,80.79
2023-03-20T09:57:27.546Z,80.46
2023-03-20T10:00:04.370Z,80.36
2023-03-20T10:03:02.320Z,79.72
2023-03-20T10:05:38.245Z,79.05
2023-03-20T10:08:17.234Z,78.71
2023-03-20T10:10:55.497Z,78.52
2023-03-20T10:14:02.889Z,77.85
2023-03-20T10:16:52.988Z,77.21
2023-03-20T10:19:32.825Z,77.13
2023-03-20T10:22:29.868Z,76.91
2023-03-20T10:25:02.504Z,77.17
2023-03-20T10:27:43.568Z,77.09
2023-03-20T10:30:38.779Z,76.66
2023-03-20T10:33:36.591Z,75.67
2023-03-20T10:36:29.238Z,74.74
2023-03-20T10:39:35.714Z,74.22
2023-03-20T10:42:06.940Z,74.06
2023-03-20T10:44:42.496Z,73.54
2023-03-20T10:47:14.704Z,73.18
2023-03-20T10:50:18.818Z,73.25
2023-03-20T10:52:48.794Z,73.01
2023-03-20T10:55:21.768Z,73.18
2023-03-20T10:58:19.135Z,72.78
2023-03-20T11:00:51.214Z,72.67
2023-03-20T11:03:25.532Z,72.66
2023-03-20T11:06:22.034Z,73.11
2023-03-20T11:08:52.786Z,73.03
2023-03-20T11:11:29.047Z,72.73
2023-03-20T11:13:58.856Z,72.43
2023-03-20T11:16:37.100Z,72.58
2023-03-20T11:19:07.806Z,72.72
2023-03-20T11:21:46.329Z,73.02
2023-03-20T11:24:26.727Z,73.06
2023-03-20T11:26:56.175Z,72.55
2023-03-20T11:29:27.113Z,72.22
2023-03-20T11:31:56.128Z,72.20
2023-03-20T11:34:27.948Z,71.67
2023-03-20T11:37:09.737Z,71.27
2023-03-20T11:39:40.369Z,70.67
2023-03-20T11:42:23.881Z,70.67
2023-03-20T11:45:01.194Z,70.78
2023-03-20T11:47:33.592Z,70.47
2023-03-20T11:50:05.832Z,69.93
2023-03-20T11:52:37.652Z,70.07
2023-03-20T11:55:24.911Z,69.83
2023-03-20T11:57:59.306Z,69.70
2023-03-20T12:00:39.695Z,69.50
2023-03-20T12:03:33.412Z,69.67
2023-03-20T12:06:02.719Z,69.93
2023-03-20T12:08:32.483Z,70.14
2023-03-20T12:11:07.313Z,70.33
2023-03-20T12:13:43.768Z,70.44
2023-03-20T12:16:15.414Z,70.07
2023-03-20T12:18:56.081Z,70.05
2023-03-20T12:21:41.228Z,69.69
2023-03-20T12:24:30.835Z,69.23
2023-03-20T12:27:01.457Z,68.55
2023-03-20T12:29:35.514Z,68.44
2023-03-20T12:32:11.269Z,68.13
2023-03-20T12:34:50.554Z,68.06
2023-03-20T12:37:22.212Z,67.98
2023-03-20T12:39:54.871Z,68.08
2023-03-20T12:42:52.560Z,66.26
2023-03-20T12:45:23.419Z,64.88
2023-03-20T12:48:30.261Z,65.09
2023-03-20T12:51:21.676Z,65.60
2023-03-20T12:54:03.995Z,66.13
2023-03-20T12:56:41.166Z,66.20
2023-03-20T12:59:14.962Z,66.04
2023-03-20T13:01:57.749Z,65.85
2023-03-20T13:04:44.080Z,65.98
2023-03-20T13:07:24.589Z,66.15
2023-03-20T13:10:02.342Z,66.09
2023-03-20T13:12:57.445Z,65.92
2023-03-20T13:15:41.081Z,66.10
2023-03-20T13:18:22.971Z,66.59
2023-03-20T13:20:53.395Z,67.31
2023-03-20T13:23:31.399Z,67.14
2023-03-20T13:26:05.918Z,66.60
2023-03-20T13:28:46.687Z,66.36
2023-03-20T13:31:38.843Z,65.75
2023-03-20T13:34:26.256Z,65.72
2023-03-20T13:37:21.832Z,65.53
2023-03-20T13:40:25.874Z,66.01
2023-03-20T13:43:16.880Z,66.40
2023-03-20T13:45:48.945Z,66.66
2023-03-20T13:48:29.107Z,67.22
2023-03-20T13:51:20.510Z,67.93
2023-03-20T13:54:22.486Z,69.15
2023-03-20T13:57:45.019Z,70.19
2023-03-20T14:01:24.498Z,70.72
2023-03-20T14:04:34.622Z,72.34
2023-03-20T14:12:02.313Z,73.82
2023-03-20T14:25:49.595Z,76.33
2023-03-20T14:29:12.959Z,76.45
2023-03-20T14:32:22.706Z,76.54
2023-03-20T14:35:37.740Z,76.13
2023-03-20T14:39:08.105Z,75.26
2023-03-20T14:42:32.801Z,75.37
2023-03-20T15:14:22.597Z,78.24
2023-03-20T15:17:52.781Z,78.03
2023-03-20T15:20:58.444Z,78.30
2023-03-20T15:24:18.730Z,78.38
2023-03-20T15:27:18.132Z,78.96
2023-03-20T15:30:37.618Z,78.89
2023-03-20T15:33:45.914Z,79.13
2023-03-20T15:36:52.181Z,79.36
2023-03-20T15:40:14.221Z,79.27
2023-03-20T15:43:43.624Z,78.73
2023-03-20T15:46:56.031Z,78.90
2023-03-20T15:50:19.449Z,79.32
2023-03-20T15:53:28.450Z,79.30
2023-03-20T15:56:49.028Z,79.77
2023-03-20T15:59:46.287Z,80.49
2023-03-20T16:02:49.783Z,80.48
2023-03-20T16:06:18.473Z,80.71
2023-03-20T16:09:30.920Z,80.64
2023-03-20T16:12:58.657Z,80.64
2023-03-20T16:16:18.560Z,80.52
2023-03-20T16:19:10.568Z,80.68
2023-03-20T16:22:54.210Z,80.67
2023-03-20T16:26:10.824Z,81.15
2023-03-20T16:29:23.635Z,81.17
2023-03-20T16:33:03.200Z,81.09
2023-03-20T16:36:26.133Z,81.48
2023-03-20T16:39:40.486Z,81.55
2023-03-20T16:42:54.864Z,81.86
2023-03-20T16:46:05.609Z,82.14
2023-03-20T16:49:29.869Z,82.20
2023-03-20T16:52:45.589Z,82.32
2023-03-20T16:56:02.520Z,81.68
2023-03-20T16:59:03.641Z,81.99
2023-03-20T17:03:08.479Z,82.07
2023-03-20T17:06:38.805Z,81.88
2023-03-20T17:17:22.698Z,82.36
2023-03-20T17:20:42.482Z,82.35
2023-03-20T17:27:25.113Z,82.68
2023-03-20T17:30:55.647Z,82.90
2023-03-20T17:34:30.890Z,83.06
2023-03-20T17:37:58.454Z,83.45
2023-03-20T17:41:28.067Z,83.47
2023-03-20T17:44:38.735Z,83.66
2023-03-20T17:48:00.772Z,83.65
2023-03-20T17:51:27.344Z,83.69
2023-03-20T17:54:57.951Z,83.89
2023-03-20T17:58:28.282Z,83.85
2023-03-20T18:01:49.218Z,83.99
2023-03-20T18:05:14.481Z,84.11
2023-03-20T18:08:36.122Z,83.89
2023-03-20T18:12:07.040Z,84.14
2023-03-20T18:15:44.775Z,83.98
2023-03-20T18:19:21.137Z,84.05
2023-03-20T18:22:39.073Z,84.01
2023-03-20T18:26:20.590Z,83.98
2023-03-20T18:29:58.392Z,84.14
2023-03-20T18:33:42.322Z,84.37
2023-03-20T18:37:31.431Z,84.37
2023-03-20T18:41:05.816Z,84.23
2023-03-20T18:44:37.880Z,84.45
2023-03-20T18:47:58.319Z,84.64
2023-03-20T18:51:35.275Z,84.59
2023-03-20T18:54:41.733Z,84.90
2023-03-20T18:58:30.937Z,85.04
2023-03-20T19:02:20.075Z,84.91
2023-03-20T19:05:52.784Z,84.97
2023-03-20T19:09:21.856Z,85.10
2023-03-20T19:12:43.525Z,85.17
2023-03-20T19:16:14.927Z,85.30
2023-03-20T19:19:25.708Z,85.76
2023-03-20T19:23:14.865Z,85.84
2023-03-20T19:26:46.959Z,85.74
2023-03-20T19:30:17.890Z,85.78
2023-03-20T19:34:07.721Z,86.00
2023-03-20T19:37:57.063Z,86.26
2023-03-20T19:41:05.382Z,86.40
2023-03-20T19:44:30.719Z,86.61
2023-03-20T19:48:08.483Z,86.69
2023-03-20T19:51:29.282Z,86.99
2023-03-20T19:55:03.181Z,87.09
2023-03-20T19:58:40.490Z,86.88
2023-03-20T20:02:09.983Z,86.79
2023-03-20T20:05:49.856Z,86.97
2023-03-20T20:09:39.017Z,86.88
2023-03-20T20:13:27.659Z,87.24
2023-03-20T20:16:53.963Z,87.21
2023-03-20T20:20:40.793Z,87.23
2023-03-20T20:24:16.227Z,87.27
2023-03-20T20:27:45.354Z,87.17
2023-03-20T20:31:24.616Z,87.04
2023-03-20T20:38:48.869Z,87.04
2023-03-20T20:42:17.233Z,87.04
2023-03-20T20:45:53.884Z,87.06
2023-03-20T20:49:43.061Z,87.11
2023-03-20T20:53:02.134Z,86.89
2023-03-20T20:56:50.077Z,86.83
2023-03-20T21:00:49.465Z,86.87
2023-03-20T21:04:29.630Z,86.84
2023-03-20T21:08:07.327Z,87.04
2023-03-20T21:11:47.490Z,87.09
2023-03-20T21:15:35.536Z,87.02
2023-03-20T21:19:24.911Z,87.07
2023-03-20T21:22:59.356Z,87.01
2023-03-20T21:26:42.258Z,86.95
2023-03-20T21:30:15.655Z,86.97
2023-03-20T21:33:40.168Z,87.27
2023-03-20T21:41:05.282Z,87.19
2023-03-20T21:45:35.706Z,87.35
2023-03-20T21:49:40.055Z,87.40
2023-03-20T21:57:07.969Z,87.30
2023-03-20T22:01:14.159Z,87.32
2023-03-20T22:05:02.053Z,87.46
2023-03-20T22:12:23.045Z,87.59
2023-03-20T22:20:19.619Z,87.70
2023-03-20T22:24:17.205Z,87.67
2023-03-20T22:31:47.112Z,87.51
2023-03-20T22:35:51.790Z,87.61
2023-03-20T22:39:22.094Z,87.96
2023-03-20T22:43:05.842Z,88.28
2023-03-20T22:46:44.890Z,88.49
2023-03-20T22:50:19.955Z,88.39
2023-03-20T22:53:41.055Z,88.68
2023-03-20T22:57:01.967Z,88.55
2023-03-20T23:00:25.648Z,88.57
2023-03-20T23:03:56.680Z,88.74
2023-03-20T23:07:22.401Z,88.91
2023-03-20T23:10:47.816Z,88.80
2023-03-20T23:14:08.740Z,88.92
2023-03-20T23:17:33.877Z,88.74
2023-03-20T23:20:51.154Z,88.67
2023-03-20T23:24:18.307Z,88.77
2023-03-20T23:27:50.002Z,88.88
2023-03-20T23:31:07.609Z,89.32
2023-03-20T23:34:31.683Z,89.37
2023-03-20T23:38:11.431Z,89.37
2023-03-20T23:42:12.169Z,89.79
2023-03-20T23:45:43.145Z,89.80
2023-03-20T23:49:12.830Z,89.97
2023-03-20T23:52:38.386Z,89.86
2023-03-20T23:55:57.821Z,89.92
2023-03-20T23:59:37.675Z,89.96
